マイアミ の空港の天気 - METARとTAF

マイアミ国際空港 ( KMIA / MIA ) - アメリカ フロリダ州マイアミ
飛行場実況気象(Metar)
観測時間06/16 04:53 EDT (06/16 08:53 UTC)
風向・風速東南東 2m/s
視程10km以上
天気現象
全天の4割程度の雲 雲底高度 760m
全天の4割程度の雲 雲底高度 6100m
気温27.2℃
湿度74%
気圧1015.6hPa
METARKMIA 160853Z 12003KT 10SM SCT025 SCT200 27/22 A2999 RMK AO2 SLP156 T02720222 55010
過去の天気等 Google飛行場航空写真 Wunderground天気予報

過去48時間のMETAR

飛行場予報(TAF)
発表時間: 6/16 05:05 EDT (6/16 09:05 UTC)
予報対象時間: 16日5時 EDT ~ 17日8時 EDT
風向・風速不定 2m/s
視程10km以上
天気現象周辺でしゅう雨
全天の4割程度の雲 雲底高度 760m
全天の4割程度の雲 雲底高度 7620m
16日5時 EDT ~ 16日8時 EDT に一時的に
風向・風速不定 8m/s
視程4830m
天気現象しゅう雨
全天の8割程度の雲 雲底高度 760m
16日10時 EDT から
風向・風速南東 5m/s
視程10km以上
天気現象しゅう雨 周辺で雷
全天の4割程度の積乱雲 雲底高度 760m
全天の8割程度の雲 雲底高度 1520m
16日22時 EDT から
風向・風速東 3m/s
視程10km以上
全天の4割程度の雲 雲底高度 760m
全天の4割程度の雲 雲底高度 1520m
KMIA 160905Z 1609/1712 VRB03KT P6SM VCSH SCT025 SCT250
TEMPO 1609/1612 VRB15KT 3SM SHRA BKN025
FM161400 13010KT P6SM SHRA VCTS SCT025CB BKN050
FM170200 10005KT P6SM SCT025 SCT050